sensor_id;sensor_type;location;lat;lon;timestamp;pressure;altitude;pressure_sealevel;temperature
21336;BMP180;10826;52.536;13.432;2022-08-11T00:01:22;101949.00;;;26.00
21336;BMP180;10826;52.536;13.432;2022-08-11T00:03:56;101948.00;;;26.00
21336;BMP180;10826;52.536;13.432;2022-08-11T00:06:29;101920.00;;;26.00
21336;BMP180;10826;52.536;13.432;2022-08-11T00:08:57;101931.00;;;26.00
21336;BMP180;10826;52.536;13.432;2022-08-11T00:11:51;101939.00;;;26.00
21336;BMP180;10826;52.536;13.432;2022-08-11T00:14:28;101933.00;;;26.00
21336;BMP180;10826;52.536;13.432;2022-08-11T00:17:27;101942.00;;;25.90
21336;BMP180;10826;52.536;13.432;2022-08-11T00:20:06;101944.00;;;25.90
21336;BMP180;10826;52.536;13.432;2022-08-11T00:22:37;101921.00;;;25.80
21336;BMP180;10826;52.536;13.432;2022-08-11T00:25:17;101943.00;;;25.80
21336;BMP180;10826;52.536;13.432;2022-08-11T00:27:48;101932.00;;;25.70
21336;BMP180;10826;52.536;13.432;2022-08-11T00:30:15;101904.00;;;25.70
21336;BMP180;10826;52.536;13.432;2022-08-11T00:32:56;101947.00;;;25.70
21336;BMP180;10826;52.536;13.432;2022-08-11T00:35:27;101934.00;;;25.70
21336;BMP180;10826;52.536;13.432;2022-08-11T00:37:57;101927.00;;;25.70
21336;BMP180;10826;52.536;13.432;2022-08-11T00:50:07;101943.00;;;25.60
21336;BMP180;10826;52.536;13.432;2022-08-11T01:01:43;101938.00;;;25.40
21336;BMP180;10826;52.536;13.432;2022-08-11T01:05:02;101943.00;;;25.40
21336;BMP180;10826;52.536;13.432;2022-08-11T01:09:07;101945.00;;;25.30
21336;BMP180;10826;52.536;13.432;2022-08-11T01:11:51;101950.00;;;25.30
21336;BMP180;10826;52.536;13.432;2022-08-11T01:18:15;101943.00;;;25.20
21336;BMP180;10826;52.536;13.432;2022-08-11T01:40:38;101947.00;;;24.90
21336;BMP180;10826;52.536;13.432;2022-08-11T01:49:45;101939.00;;;24.80
21336;BMP180;10826;52.536;13.432;2022-08-11T01:52:35;101944.00;;;24.80
21336;BMP180;10826;52.536;13.432;2022-08-11T01:55:53;101937.00;;;24.80
21336;BMP180;10826;52.536;13.432;2022-08-11T02:05:09;101918.00;;;24.70
21336;BMP180;10826;52.536;13.432;2022-08-11T02:10:56;101921.00;;;24.60
21336;BMP180;10826;52.536;13.432;2022-08-11T02:14:01;101935.00;;;24.60
21336;BMP180;10826;52.536;13.432;2022-08-11T02:20:01;101934.00;;;24.60
21336;BMP180;10826;52.536;13.432;2022-08-11T02:23:03;101927.00;;;24.50
21336;BMP180;10826;52.536;13.432;2022-08-11T02:26:04;101942.00;;;24.50
21336;BMP180;10826;52.536;13.432;2022-08-11T02:32:02;101914.00;;;24.50
21336;BMP180;10826;52.536;13.432;2022-08-11T02:35:28;101928.00;;;24.40
21336;BMP180;10826;52.536;13.432;2022-08-11T02:38:39;101929.00;;;24.40
21336;BMP180;10826;52.536;13.432;2022-08-11T02:45:36;101925.00;;;24.40
21336;BMP180;10826;52.536;13.432;2022-08-11T02:48:34;101838.00;;;24.40
21336;BMP180;10826;52.536;13.432;2022-08-11T02:52:07;101927.00;;;24.40
21336;BMP180;10826;52.536;13.432;2022-08-11T02:58:02;101909.00;;;24.30
21336;BMP180;10826;52.536;13.432;2022-08-11T03:00:54;101917.00;;;24.40
21336;BMP180;10826;52.536;13.432;2022-08-11T03:03:52;101903.00;;;24.40
21336;BMP180;10826;52.536;13.432;2022-08-11T03:06:44;101923.00;;;24.40
21336;BMP180;10826;52.536;13.432;2022-08-11T03:09:45;101920.00;;;24.40
21336;BMP180;10826;52.536;13.432;2022-08-11T03:12:31;101859.00;;;24.40
21336;BMP180;10826;52.536;13.432;2022-08-11T03:15:27;101921.00;;;24.40
21336;BMP180;10826;52.536;13.432;2022-08-11T03:18:55;101933.00;;;24.40
21336;BMP180;10826;52.536;13.432;2022-08-11T03:24:53;101923.00;;;24.40
21336;BMP180;10826;52.536;13.432;2022-08-11T03:27:49;101919.00;;;24.40
21336;BMP180;10826;52.536;13.432;2022-08-11T03:30:50;101900.00;;;24.40
21336;BMP180;10826;52.536;13.432;2022-08-11T03:33:29;101905.00;;;24.30
21336;BMP180;10826;52.536;13.432;2022-08-11T03:47:56;101916.00;;;24.30
21336;BMP180;10826;52.536;13.432;2022-08-11T03:57:00;101888.00;;;24.20
21336;BMP180;10826;52.536;13.432;2022-08-11T04:03:15;101927.00;;;24.20
21336;BMP180;10826;52.536;13.432;2022-08-11T04:12:35;101921.00;;;24.10
21336;BMP180;10826;52.536;13.432;2022-08-11T04:15:52;101917.00;;;24.10
21336;BMP180;10826;52.536;13.432;2022-08-11T04:24:57;101926.00;;;24.10
21336;BMP180;10826;52.536;13.432;2022-08-11T04:27:47;101926.00;;;24.10
21336;BMP180;10826;52.536;13.432;2022-08-11T04:30:49;101931.00;;;24.10
21336;BMP180;10826;52.536;13.432;2022-08-11T04:33:58;101937.00;;;24.10
21336;BMP180;10826;52.536;13.432;2022-08-11T04:37:09;101938.00;;;24.10
21336;BMP180;10826;52.536;13.432;2022-08-11T04:49:27;101936.00;;;24.00
21336;BMP180;10826;52.536;13.432;2022-08-11T04:53:04;101901.00;;;24.00
21336;BMP180;10826;52.536;13.432;2022-08-11T04:56:23;101918.00;;;24.00
21336;BMP180;10826;52.536;13.432;2022-08-11T05:06:22;101933.00;;;24.10
21336;BMP180;10826;52.536;13.432;2022-08-11T05:09:43;101922.00;;;24.10
21336;BMP180;10826;52.536;13.432;2022-08-11T05:12:35;101926.00;;;24.10
21336;BMP180;10826;52.536;13.432;2022-08-11T05:15:13;101935.00;;;24.10
21336;BMP180;10826;52.536;13.432;2022-08-11T05:18:16;101950.00;;;24.20
21336;BMP180;10826;52.536;13.432;2022-08-11T05:21:08;101914.00;;;24.20
21336;BMP180;10826;52.536;13.432;2022-08-11T05:24:03;101915.00;;;24.30
21336;BMP180;10826;52.536;13.432;2022-08-11T05:26:53;101892.00;;;24.30
21336;BMP180;10826;52.536;13.432;2022-08-11T05:29:56;101898.00;;;24.40
21336;BMP180;10826;52.536;13.432;2022-08-11T05:32:47;101938.00;;;24.40
21336;BMP180;10826;52.536;13.432;2022-08-11T05:35:48;101940.00;;;24.50
21336;BMP180;10826;52.536;13.432;2022-08-11T05:38:25;101952.00;;;24.60
21336;BMP180;10826;52.536;13.432;2022-08-11T05:41:13;101897.00;;;24.60
21336;BMP180;10826;52.536;13.432;2022-08-11T05:44:02;101948.00;;;24.70
21336;BMP180;10826;52.536;13.432;2022-08-11T05:46:48;101957.00;;;24.80
21336;BMP180;10826;52.536;13.432;2022-08-11T05:49:35;101915.00;;;24.90
21336;BMP180;10826;52.536;13.432;2022-08-11T05:52:26;101955.00;;;25.10
21336;BMP180;10826;52.536;13.432;2022-08-11T05:55:13;101941.00;;;25.20
21336;BMP180;10826;52.536;13.432;2022-08-11T05:58:04;101911.00;;;25.30
21336;BMP180;10826;52.536;13.432;2022-08-11T06:00:40;101949.00;;;25.40
21336;BMP180;10826;52.536;13.432;2022-08-11T06:03:08;101928.00;;;25.40
21336;BMP180;10826;52.536;13.432;2022-08-11T06:05:40;101949.00;;;25.60
21336;BMP180;10826;52.536;13.432;2022-08-11T06:08:11;101931.00;;;25.60
21336;BMP180;10826;52.536;13.432;2022-08-11T06:10:41;101947.00;;;25.70
21336;BMP180;10826;52.536;13.432;2022-08-11T06:13:14;101949.00;;;25.80
21336;BMP180;10826;52.536;13.432;2022-08-11T06:15:48;101955.00;;;25.90
21336;BMP180;10826;52.536;13.432;2022-08-11T06:18:15;101963.00;;;26.00
21336;BMP180;10826;52.536;13.432;2022-08-11T06:20:51;101935.00;;;26.10
21336;BMP180;10826;52.536;13.432;2022-08-11T06:23:21;101953.00;;;26.10
21336;BMP180;10826;52.536;13.432;2022-08-11T06:25:53;101969.00;;;26.20
21336;BMP180;10826;52.536;13.432;2022-08-11T06:28:31;101968.00;;;26.30
21336;BMP180;10826;52.536;13.432;2022-08-11T06:30:58;101956.00;;;26.30
21336;BMP180;10826;52.536;13.432;2022-08-11T06:33:49;101952.00;;;26.50
21336;BMP180;10826;52.536;13.432;2022-08-11T06:40:07;101972.00;;;26.80
21336;BMP180;10826;52.536;13.432;2022-08-11T06:43:04;101968.00;;;26.90
21336;BMP180;10826;52.536;13.432;2022-08-11T06:46:00;101970.00;;;26.90
21336;BMP180;10826;52.536;13.432;2022-08-11T06:48:32;101965.00;;;27.10
21336;BMP180;10826;52.536;13.432;2022-08-11T06:51:03;101968.00;;;27.20
21336;BMP180;10826;52.536;13.432;2022-08-11T06:54:09;101957.00;;;27.30
21336;BMP180;10826;52.536;13.432;2022-08-11T06:56:40;101964.00;;;27.40
21336;BMP180;10826;52.536;13.432;2022-08-11T06:59:26;101952.00;;;27.50
21336;BMP180;10826;52.536;13.432;2022-08-11T07:02:23;101953.00;;;27.60
21336;BMP180;10826;52.536;13.432;2022-08-11T07:05:07;101969.00;;;27.60
21336;BMP180;10826;52.536;13.432;2022-08-11T07:13:58;101955.00;;;27.80
21336;BMP180;10826;52.536;13.432;2022-08-11T07:16:48;101959.00;;;27.80
21336;BMP180;10826;52.536;13.432;2022-08-11T07:19:23;101951.00;;;27.90
21336;BMP180;10826;52.536;13.432;2022-08-11T07:22:10;101943.00;;;28.00
21336;BMP180;10826;52.536;13.432;2022-08-11T07:25:07;101945.00;;;28.00
21336;BMP180;10826;52.536;13.432;2022-08-11T07:28:04;101951.00;;;28.00
21336;BMP180;10826;52.536;13.432;2022-08-11T07:30:56;101926.00;;;28.10
21336;BMP180;10826;52.536;13.432;2022-08-11T07:33:41;101926.00;;;28.20
21336;BMP180;10826;52.536;13.432;2022-08-11T07:36:13;101943.00;;;28.10
21336;BMP180;10826;52.536;13.432;2022-08-11T07:38:46;101935.00;;;28.20
21336;BMP180;10826;52.536;13.432;2022-08-11T07:41:22;101929.00;;;28.30
21336;BMP180;10826;52.536;13.432;2022-08-11T07:43:56;101942.00;;;28.30
21336;BMP180;10826;52.536;13.432;2022-08-11T07:46:40;101953.00;;;28.30
21336;BMP180;10826;52.536;13.432;2022-08-11T07:49:27;101938.00;;;28.30
21336;BMP180;10826;52.536;13.432;2022-08-11T07:52:13;101934.00;;;28.40
21336;BMP180;10826;52.536;13.432;2022-08-11T07:57:26;101938.00;;;28.40
21336;BMP180;10826;52.536;13.432;2022-08-11T08:00:12;101953.00;;;28.50
21336;BMP180;10826;52.536;13.432;2022-08-11T08:02:59;101947.00;;;28.50
21336;BMP180;10826;52.536;13.432;2022-08-11T08:05:47;101944.00;;;28.60
21336;BMP180;10826;52.536;13.432;2022-08-11T08:08:32;101943.00;;;28.60
21336;BMP180;10826;52.536;13.432;2022-08-11T08:11:20;101950.00;;;28.60
21336;BMP180;10826;52.536;13.432;2022-08-11T08:14:07;101953.00;;;28.60
21336;BMP180;10826;52.536;13.432;2022-08-11T08:16:55;101944.00;;;28.70
21336;BMP180;10826;52.536;13.432;2022-08-11T08:19:47;101925.00;;;28.60
21336;BMP180;10826;52.536;13.432;2022-08-11T08:22:18;101956.00;;;28.80
21336;BMP180;10826;52.536;13.432;2022-08-11T08:24:45;101948.00;;;28.80
21336;BMP180;10826;52.536;13.432;2022-08-11T08:27:16;101931.00;;;28.80
21336;BMP180;10826;52.536;13.432;2022-08-11T08:29:44;101940.00;;;28.80
21336;BMP180;10826;52.536;13.432;2022-08-11T08:32:30;101937.00;;;28.90
21336;BMP180;10826;52.536;13.432;2022-08-11T08:34:59;101944.00;;;28.90
21336;BMP180;10826;52.536;13.432;2022-08-11T08:37:26;101950.00;;;28.80
21336;BMP180;10826;52.536;13.432;2022-08-11T08:39:53;101942.00;;;29.00
21336;BMP180;10826;52.536;13.432;2022-08-11T08:42:29;101942.00;;;29.00
21336;BMP180;10826;52.536;13.432;2022-08-11T08:45:09;101938.00;;;29.10
21336;BMP180;10826;52.536;13.432;2022-08-11T08:47:41;101938.00;;;29.10
21336;BMP180;10826;52.536;13.432;2022-08-11T08:50:20;101942.00;;;29.00
21336;BMP180;10826;52.536;13.432;2022-08-11T08:53:05;101932.00;;;29.20
21336;BMP180;10826;52.536;13.432;2022-08-11T08:55:33;101913.00;;;29.10
21336;BMP180;10826;52.536;13.432;2022-08-11T08:58:00;101933.00;;;29.20
21336;BMP180;10826;52.536;13.432;2022-08-11T09:00:41;101925.00;;;29.30
21336;BMP180;10826;52.536;13.432;2022-08-11T09:03:10;101941.00;;;29.30
21336;BMP180;10826;52.536;13.432;2022-08-11T09:05:36;101931.00;;;29.30
21336;BMP180;10826;52.536;13.432;2022-08-11T09:08:04;101934.00;;;29.40
21336;BMP180;10826;52.536;13.432;2022-08-11T09:10:30;101907.00;;;29.40
21336;BMP180;10826;52.536;13.432;2022-08-11T09:12:58;101914.00;;;29.40
21336;BMP180;10826;52.536;13.432;2022-08-11T09:15:26;101912.00;;;29.50
21336;BMP180;10826;52.536;13.432;2022-08-11T09:17:55;101919.00;;;29.50
21336;BMP180;10826;52.536;13.432;2022-08-11T09:20:38;101926.00;;;29.50
21336;BMP180;10826;52.536;13.432;2022-08-11T09:23:07;101910.00;;;29.60
21336;BMP180;10826;52.536;13.432;2022-08-11T09:25:58;101923.00;;;29.60
21336;BMP180;10826;52.536;13.432;2022-08-11T09:28:44;101919.00;;;29.60
21336;BMP180;10826;52.536;13.432;2022-08-11T09:31:13;101923.00;;;29.60
21336;BMP180;10826;52.536;13.432;2022-08-11T09:33:41;101923.00;;;29.70
21336;BMP180;10826;52.536;13.432;2022-08-11T09:36:09;101910.00;;;29.70
21336;BMP180;10826;52.536;13.432;2022-08-11T09:38:55;101900.00;;;29.70
21336;BMP180;10826;52.536;13.432;2022-08-11T09:41:43;101906.00;;;29.80
21336;BMP180;10826;52.536;13.432;2022-08-11T09:44:10;101905.00;;;29.80
21336;BMP180;10826;52.536;13.432;2022-08-11T09:46:56;101894.00;;;29.80
21336;BMP180;10826;52.536;13.432;2022-08-11T09:49:26;101900.00;;;29.90
21336;BMP180;10826;52.536;13.432;2022-08-11T09:51:53;101905.00;;;29.90
21336;BMP180;10826;52.536;13.432;2022-08-11T09:54:22;101898.00;;;29.90
21336;BMP180;10826;52.536;13.432;2022-08-11T09:56:52;101894.00;;;30.00
21336;BMP180;10826;52.536;13.432;2022-08-11T09:59:37;101883.00;;;30.00
21336;BMP180;10826;52.536;13.432;2022-08-11T10:02:06;101889.00;;;30.00
21336;BMP180;10826;52.536;13.432;2022-08-11T10:04:43;101889.00;;;30.10
21336;BMP180;10826;52.536;13.432;2022-08-11T10:07:15;101874.00;;;30.10
21336;BMP180;10826;52.536;13.432;2022-08-11T10:09:51;101886.00;;;30.20
21336;BMP180;10826;52.536;13.432;2022-08-11T10:12:33;101893.00;;;30.20
21336;BMP180;10826;52.536;13.432;2022-08-11T10:15:09;101887.00;;;30.30
21336;BMP180;10826;52.536;13.432;2022-08-11T10:18:01;101877.00;;;30.40
21336;BMP180;10826;52.536;13.432;2022-08-11T10:20:49;101824.00;;;30.40
21336;BMP180;10826;52.536;13.432;2022-08-11T10:23:17;101873.00;;;30.40
21336;BMP180;10826;52.536;13.432;2022-08-11T10:26:03;101881.00;;;30.50
21336;BMP180;10826;52.536;13.432;2022-08-11T10:28:49;101876.00;;;30.50
21336;BMP180;10826;52.536;13.432;2022-08-11T10:31:19;101870.00;;;30.50
21336;BMP180;10826;52.536;13.432;2022-08-11T10:34:12;101870.00;;;30.60
21336;BMP180;10826;52.536;13.432;2022-08-11T10:36:43;101871.00;;;30.70
21336;BMP180;10826;52.536;13.432;2022-08-11T10:39:21;101863.00;;;30.70
21336;BMP180;10826;52.536;13.432;2022-08-11T10:41:48;101872.00;;;30.80
21336;BMP180;10826;52.536;13.432;2022-08-11T10:44:46;101852.00;;;30.90
21336;BMP180;10826;52.536;13.432;2022-08-11T10:47:16;101849.00;;;30.90
21336;BMP180;10826;52.536;13.432;2022-08-11T10:50:18;101860.00;;;30.90
21336;BMP180;10826;52.536;13.432;2022-08-11T10:53:03;101865.00;;;30.70
21336;BMP180;10826;52.536;13.432;2022-08-11T10:55:48;101853.00;;;31.00
21336;BMP180;10826;52.536;13.432;2022-08-11T10:58:37;101828.00;;;31.00
21336;BMP180;10826;52.536;13.432;2022-08-11T11:01:18;101819.00;;;31.00
21336;BMP180;10826;52.536;13.432;2022-08-11T11:04:17;101836.00;;;31.10
21336;BMP180;10826;52.536;13.432;2022-08-11T11:09:31;101843.00;;;31.10
21336;BMP180;10826;52.536;13.432;2022-08-11T11:12:14;101834.00;;;31.20
21336;BMP180;10826;52.536;13.432;2022-08-11T11:15:03;101836.00;;;31.20
21336;BMP180;10826;52.536;13.432;2022-08-11T11:17:55;101828.00;;;31.30
21336;BMP180;10826;52.536;13.432;2022-08-11T11:20:32;101817.00;;;31.30
21336;BMP180;10826;52.536;13.432;2022-08-11T11:23:07;101834.00;;;31.40
21336;BMP180;10826;52.536;13.432;2022-08-11T11:25:54;101824.00;;;31.50
21336;BMP180;10826;52.536;13.432;2022-08-11T11:32:36;101819.00;;;31.50
21336;BMP180;10826;52.536;13.432;2022-08-11T11:38:17;101805.00;;;31.50
21336;BMP180;10826;52.536;13.432;2022-08-11T11:40:44;101794.00;;;31.60
21336;BMP180;10826;52.536;13.432;2022-08-11T11:43:34;101811.00;;;31.60
21336;BMP180;10826;52.536;13.432;2022-08-11T11:46:02;101811.00;;;31.70
21336;BMP180;10826;52.536;13.432;2022-08-11T11:48:32;101804.00;;;31.70
21336;BMP180;10826;52.536;13.432;2022-08-11T11:50:59;101781.00;;;31.70
21336;BMP180;10826;52.536;13.432;2022-08-11T11:53:26;101795.00;;;31.70
21336;BMP180;10826;52.536;13.432;2022-08-11T11:55:52;101790.00;;;31.80
21336;BMP180;10826;52.536;13.432;2022-08-11T11:58:19;101807.00;;;31.80
21336;BMP180;10826;52.536;13.432;2022-08-11T12:01:05;101789.00;;;31.80
21336;BMP180;10826;52.536;13.432;2022-08-11T12:03:44;101800.00;;;31.90
21336;BMP180;10826;52.536;13.432;2022-08-11T12:06:13;101791.00;;;31.80
21336;BMP180;10826;52.536;13.432;2022-08-11T12:08:41;101792.00;;;31.90
21336;BMP180;10826;52.536;13.432;2022-08-11T12:11:11;101804.00;;;31.90
21336;BMP180;10826;52.536;13.432;2022-08-11T12:14:00;101783.00;;;31.90
21336;BMP180;10826;52.536;13.432;2022-08-11T12:16:27;101789.00;;;31.80
21336;BMP180;10826;52.536;13.432;2022-08-11T12:18:58;101779.00;;;31.90
21336;BMP180;10826;52.536;13.432;2022-08-11T12:21:29;101777.00;;;31.90
21336;BMP180;10826;52.536;13.432;2022-08-11T12:23:59;101770.00;;;32.00
21336;BMP180;10826;52.536;13.432;2022-08-11T12:26:45;101763.00;;;32.00
21336;BMP180;10826;52.536;13.432;2022-08-11T12:29:31;101757.00;;;31.90
21336;BMP180;10826;52.536;13.432;2022-08-11T12:31:59;101763.00;;;32.00
21336;BMP180;10826;52.536;13.432;2022-08-11T12:34:27;101765.00;;;32.10
21336;BMP180;10826;52.536;13.432;2022-08-11T12:37:00;101759.00;;;32.10
21336;BMP180;10826;52.536;13.432;2022-08-11T12:39:36;101771.00;;;32.10
21336;BMP180;10826;52.536;13.432;2022-08-11T12:42:22;101767.00;;;32.10
21336;BMP180;10826;52.536;13.432;2022-08-11T12:45:27;101767.00;;;32.10
21336;BMP180;10826;52.536;13.432;2022-08-11T12:48:17;101766.00;;;32.20
21336;BMP180;10826;52.536;13.432;2022-08-11T12:51:36;101734.00;;;32.20
21336;BMP180;10826;52.536;13.432;2022-08-11T12:54:47;101754.00;;;32.20
21336;BMP180;10826;52.536;13.432;2022-08-11T12:57:38;101741.00;;;32.20
21336;BMP180;10826;52.536;13.432;2022-08-11T13:00:26;101743.00;;;32.20
21336;BMP180;10826;52.536;13.432;2022-08-11T13:03:14;101746.00;;;32.20
21336;BMP180;10826;52.536;13.432;2022-08-11T13:06:03;101723.00;;;32.20
21336;BMP180;10826;52.536;13.432;2022-08-11T13:08:35;101730.00;;;32.20
21336;BMP180;10826;52.536;13.432;2022-08-11T13:11:02;101727.00;;;32.20
21336;BMP180;10826;52.536;13.432;2022-08-11T13:13:49;101729.00;;;32.20
21336;BMP180;10826;52.536;13.432;2022-08-11T13:16:17;101727.00;;;32.20
21336;BMP180;10826;52.536;13.432;2022-08-11T13:18:46;101724.00;;;32.20
21336;BMP180;10826;52.536;13.432;2022-08-11T13:21:14;101727.00;;;32.20
21336;BMP180;10826;52.536;13.432;2022-08-11T13:23:41;101717.00;;;32.20
21336;BMP180;10826;52.536;13.432;2022-08-11T13:26:08;101718.00;;;32.10
21336;BMP180;10826;52.536;13.432;2022-08-11T13:28:39;101727.00;;;32.10
21336;BMP180;10826;52.536;13.432;2022-08-11T13:31:05;101718.00;;;32.10
21336;BMP180;10826;52.536;13.432;2022-08-11T13:33:47;101722.00;;;32.00
21336;BMP180;10826;52.536;13.432;2022-08-11T13:36:21;101715.00;;;32.00
21336;BMP180;10826;52.536;13.432;2022-08-11T13:38:54;101713.00;;;31.90
21336;BMP180;10826;52.536;13.432;2022-08-11T13:41:25;101708.00;;;31.90
21336;BMP180;10826;52.536;13.432;2022-08-11T13:44:12;101700.00;;;31.80
21336;BMP180;10826;52.536;13.432;2022-08-11T13:46:41;101691.00;;;31.80
21336;BMP180;10826;52.536;13.432;2022-08-11T13:49:08;101713.00;;;31.80
21336;BMP180;10826;52.536;13.432;2022-08-11T13:51:39;101696.00;;;31.80
21336;BMP180;10826;52.536;13.432;2022-08-11T13:54:10;101690.00;;;31.80
21336;BMP180;10826;52.536;13.432;2022-08-11T13:56:38;101700.00;;;31.80
21336;BMP180;10826;52.536;13.432;2022-08-11T13:59:08;101695.00;;;31.80
21336;BMP180;10826;52.536;13.432;2022-08-11T14:01:40;101690.00;;;31.80
21336;BMP180;10826;52.536;13.432;2022-08-11T14:04:14;101687.00;;;31.80
21336;BMP180;10826;52.536;13.432;2022-08-11T14:06:48;101701.00;;;31.80
21336;BMP180;10826;52.536;13.432;2022-08-11T14:09:29;101700.00;;;31.70
21336;BMP180;10826;52.536;13.432;2022-08-11T14:12:02;101695.00;;;31.70
21336;BMP180;10826;52.536;13.432;2022-08-11T14:15:04;101696.00;;;31.70
21336;BMP180;10826;52.536;13.432;2022-08-11T14:17:35;101697.00;;;31.70
21336;BMP180;10826;52.536;13.432;2022-08-11T14:20:07;101685.00;;;31.80
21336;BMP180;10826;52.536;13.432;2022-08-11T14:22:37;101687.00;;;31.80
21336;BMP180;10826;52.536;13.432;2022-08-11T14:25:06;101686.00;;;31.80
21336;BMP180;10826;52.536;13.432;2022-08-11T14:27:32;101682.00;;;31.90
21336;BMP180;10826;52.536;13.432;2022-08-11T14:29:59;101674.00;;;31.90
21336;BMP180;10826;52.536;13.432;2022-08-11T14:32:26;101678.00;;;31.80
21336;BMP180;10826;52.536;13.432;2022-08-11T14:34:52;101665.00;;;31.80
21336;BMP180;10826;52.536;13.432;2022-08-11T14:37:22;101679.00;;;31.90
21336;BMP180;10826;52.536;13.432;2022-08-11T14:39:53;101675.00;;;31.90
21336;BMP180;10826;52.536;13.432;2022-08-11T14:42:23;101678.00;;;31.80
21336;BMP180;10826;52.536;13.432;2022-08-11T14:45:17;101671.00;;;31.80
21336;BMP180;10826;52.536;13.432;2022-08-11T14:48:08;101675.00;;;31.80
21336;BMP180;10826;52.536;13.432;2022-08-11T14:50:35;101674.00;;;31.80
21336;BMP180;10826;52.536;13.432;2022-08-11T14:53:10;101672.00;;;31.90
21336;BMP180;10826;52.536;13.432;2022-08-11T14:55:40;101667.00;;;31.90
21336;BMP180;10826;52.536;13.432;2022-08-11T14:58:29;101667.00;;;31.90
21336;BMP180;10826;52.536;13.432;2022-08-11T15:01:01;101669.00;;;31.90
21336;BMP180;10826;52.536;13.432;2022-08-11T15:03:31;101670.00;;;31.90
21336;BMP180;10826;52.536;13.432;2022-08-11T15:06:01;101660.00;;;31.90
21336;BMP180;10826;52.536;13.432;2022-08-11T15:08:32;101662.00;;;31.90
21336;BMP180;10826;52.536;13.432;2022-08-11T15:11:20;101652.00;;;31.90
21336;BMP180;10826;52.536;13.432;2022-08-11T15:14:09;101650.00;;;31.90
21336;BMP180;10826;52.536;13.432;2022-08-11T15:16:43;101647.00;;;31.90
21336;BMP180;10826;52.536;13.432;2022-08-11T15:19:30;101643.00;;;31.90
21336;BMP180;10826;52.536;13.432;2022-08-11T15:21:57;101639.00;;;31.90
21336;BMP180;10826;52.536;13.432;2022-08-11T15:24:41;101633.00;;;31.90
21336;BMP180;10826;52.536;13.432;2022-08-11T15:27:13;101629.00;;;31.90
21336;BMP180;10826;52.536;13.432;2022-08-11T15:30:03;101637.00;;;31.90
21336;BMP180;10826;52.536;13.432;2022-08-11T15:32:50;101639.00;;;31.90
21336;BMP180;10826;52.536;13.432;2022-08-11T15:35:37;101649.00;;;31.90
21336;BMP180;10826;52.536;13.432;2022-08-11T15:38:24;101638.00;;;31.90
21336;BMP180;10826;52.536;13.432;2022-08-11T15:40:54;101638.00;;;32.00
21336;BMP180;10826;52.536;13.432;2022-08-11T15:43:50;101646.00;;;31.90
21336;BMP180;10826;52.536;13.432;2022-08-11T15:46:43;101626.00;;;31.90
21336;BMP180;10826;52.536;13.432;2022-08-11T15:49:28;101628.00;;;31.90
21336;BMP180;10826;52.536;13.432;2022-08-11T15:52:06;101635.00;;;31.90
21336;BMP180;10826;52.536;13.432;2022-08-11T15:54:39;101628.00;;;31.90
21336;BMP180;10826;52.536;13.432;2022-08-11T15:57:07;101608.00;;;31.90
21336;BMP180;10826;52.536;13.432;2022-08-11T15:59:38;101619.00;;;32.00
21336;BMP180;10826;52.536;13.432;2022-08-11T16:02:25;101616.00;;;32.00
21336;BMP180;10826;52.536;13.432;2022-08-11T16:05:05;101627.00;;;31.90
21336;BMP180;10826;52.536;13.432;2022-08-11T16:07:35;101626.00;;;31.90
21336;BMP180;10826;52.536;13.432;2022-08-11T16:10:06;101614.00;;;32.00
21336;BMP180;10826;52.536;13.432;2022-08-11T16:12:42;101601.00;;;32.00
21336;BMP180;10826;52.536;13.432;2022-08-11T16:15:39;101614.00;;;32.00
21336;BMP180;10826;52.536;13.432;2022-08-11T16:18:37;101618.00;;;32.00
21336;BMP180;10826;52.536;13.432;2022-08-11T16:21:18;101613.00;;;32.10
21336;BMP180;10826;52.536;13.432;2022-08-11T16:23:51;101605.00;;;32.10
21336;BMP180;10826;52.536;13.432;2022-08-11T16:26:21;101616.00;;;32.10
21336;BMP180;10826;52.536;13.432;2022-08-11T16:28:54;101603.00;;;32.10
21336;BMP180;10826;52.536;13.432;2022-08-11T16:31:22;101597.00;;;32.20
21336;BMP180;10826;52.536;13.432;2022-08-11T16:33:51;101613.00;;;32.20
21336;BMP180;10826;52.536;13.432;2022-08-11T16:36:20;101620.00;;;32.10
21336;BMP180;10826;52.536;13.432;2022-08-11T16:39:11;101614.00;;;32.10
21336;BMP180;10826;52.536;13.432;2022-08-11T16:41:39;101608.00;;;32.10
21336;BMP180;10826;52.536;13.432;2022-08-11T16:44:27;101596.00;;;32.10
21336;BMP180;10826;52.536;13.432;2022-08-11T16:47:15;101590.00;;;32.00
21336;BMP180;10826;52.536;13.432;2022-08-11T16:49:50;101612.00;;;32.20
21336;BMP180;10826;52.536;13.432;2022-08-11T16:52:18;101618.00;;;32.20
21336;BMP180;10826;52.536;13.432;2022-08-11T16:54:44;101609.00;;;32.20
21336;BMP180;10826;52.536;13.432;2022-08-11T16:57:25;101618.00;;;32.20
21336;BMP180;10826;52.536;13.432;2022-08-11T17:00:15;101613.00;;;32.20
21336;BMP180;10826;52.536;13.432;2022-08-11T17:02:52;101608.00;;;32.20
21336;BMP180;10826;52.536;13.432;2022-08-11T17:05:44;101615.00;;;32.10
21336;BMP180;10826;52.536;13.432;2022-08-11T17:08:38;101615.00;;;32.20
21336;BMP180;10826;52.536;13.432;2022-08-11T17:11:30;101609.00;;;32.10
21336;BMP180;10826;52.536;13.432;2022-08-11T17:14:24;101608.00;;;32.10
21336;BMP180;10826;52.536;13.432;2022-08-11T17:16:51;101605.00;;;32.00
21336;BMP180;10826;52.536;13.432;2022-08-11T17:19:24;101605.00;;;32.10
21336;BMP180;10826;52.536;13.432;2022-08-11T17:21:53;101600.00;;;32.00
21336;BMP180;10826;52.536;13.432;2022-08-11T17:24:45;101614.00;;;32.00
21336;BMP180;10826;52.536;13.432;2022-08-11T17:27:15;101602.00;;;31.90
21336;BMP180;10826;52.536;13.432;2022-08-11T17:29:53;101598.00;;;31.90
21336;BMP180;10826;52.536;13.432;2022-08-11T17:32:35;101624.00;;;31.80